Hubert, Texas
Current Conditions -  °F | °C
As of 1:55 PM on Sunday 21 Dec 2014 (Local Time) from KRBO Reporting Station
Overcast Overcast  
Wind Chill: 61°   Ceiling: 1000
Heat Index: 61°   Visibility: 7mi
Dew Point: 56°   Wind: 3mph
Humidity: 83%   Direction: 60°ENE
Pressure: 29.99"   Gusts: NA
Location:  28.0654°N, 97.7489°W
Report Text: KRBO 211955Z AUTO 06003KT 7SM BKN010 BKN029 OVC046 16/13 A2999 RMK AO2 T01610133
Loading
Personal Weather Stations






























Interactive Weather Map New forecast layout! Learn more

10-Day Weather Forecast

Advertisements
Track Severe Weather on mobile